sensor_id;sensor_type;location;lat;lon;timestamp;temperature;humidity
52859;DHT22;38721;53.098;6.596;2023-07-20T00:00:27;15.00;99.90
52859;DHT22;38721;53.098;6.596;2023-07-20T00:03:09;15.00;99.90
52859;DHT22;38721;53.098;6.596;2023-07-20T00:05:34;14.90;99.90
52859;DHT22;38721;53.098;6.596;2023-07-20T00:08:00;15.00;99.90
52859;DHT22;38721;53.098;6.596;2023-07-20T00:10:26;14.90;99.90
52859;DHT22;38721;53.098;6.596;2023-07-20T00:12:51;15.00;99.90
52859;DHT22;38721;53.098;6.596;2023-07-20T00:15:17;14.90;99.90
52859;DHT22;38721;53.098;6.596;2023-07-20T00:17:42;14.90;99.90
52859;DHT22;38721;53.098;6.596;2023-07-20T00:20:10;14.90;99.90
52859;DHT22;38721;53.098;6.596;2023-07-20T00:22:36;14.90;99.90
52859;DHT22;38721;53.098;6.596;2023-07-20T00:25:02;14.90;99.90
52859;DHT22;38721;53.098;6.596;2023-07-20T00:27:28;14.90;99.90
52859;DHT22;38721;53.098;6.596;2023-07-20T00:29:54;14.90;99.90
52859;DHT22;38721;53.098;6.596;2023-07-20T00:32:20;14.90;99.90
52859;DHT22;38721;53.098;6.596;2023-07-20T00:34:45;14.80;99.90
52859;DHT22;38721;53.098;6.596;2023-07-20T00:37:11;14.80;99.90
52859;DHT22;38721;53.098;6.596;2023-07-20T00:39:37;14.80;99.90
52859;DHT22;38721;53.098;6.596;2023-07-20T00:42:02;14.80;99.90
52859;DHT22;38721;53.098;6.596;2023-07-20T00:44:28;14.80;99.90
52859;DHT22;38721;53.098;6.596;2023-07-20T00:46:54;14.80;99.90
52859;DHT22;38721;53.098;6.596;2023-07-20T00:49:20;14.80;99.90
52859;DHT22;38721;53.098;6.596;2023-07-20T00:51:49;14.70;99.90
52859;DHT22;38721;53.098;6.596;2023-07-20T00:54:16;14.70;99.90
52859;DHT22;38721;53.098;6.596;2023-07-20T00:56:42;14.60;99.90
52859;DHT22;38721;53.098;6.596;2023-07-20T00:59:09;14.50;99.90
52859;DHT22;38721;53.098;6.596;2023-07-20T01:01:34;14.50;99.90
52859;DHT22;38721;53.098;6.596;2023-07-20T01:04:00;14.40;99.90
52859;DHT22;38721;53.098;6.596;2023-07-20T01:06:30;14.30;99.90
52859;DHT22;38721;53.098;6.596;2023-07-20T01:09:24;14.20;99.90
52859;DHT22;38721;53.098;6.596;2023-07-20T01:12:05;14.20;99.90
52859;DHT22;38721;53.098;6.596;2023-07-20T01:14:32;14.20;99.90
52859;DHT22;38721;53.098;6.596;2023-07-20T01:16:59;14.10;99.90
52859;DHT22;38721;53.098;6.596;2023-07-20T01:19:25;14.10;99.90
52859;DHT22;38721;53.098;6.596;2023-07-20T01:22:11;14.00;99.90
52859;DHT22;38721;53.098;6.596;2023-07-20T01:27:34;13.90;99.90
52859;DHT22;38721;53.098;6.596;2023-07-20T01:32:42;13.80;99.90
52859;DHT22;38721;53.098;6.596;2023-07-20T01:35:10;13.70;99.90
52859;DHT22;38721;53.098;6.596;2023-07-20T01:37:41;13.70;99.90
52859;DHT22;38721;53.098;6.596;2023-07-20T01:40:08;13.70;99.90
52859;DHT22;38721;53.098;6.596;2023-07-20T01:42:34;13.60;99.90
52859;DHT22;38721;53.098;6.596;2023-07-20T01:45:00;13.60;99.90
52859;DHT22;38721;53.098;6.596;2023-07-20T01:47:25;13.50;99.90
52859;DHT22;38721;53.098;6.596;2023-07-20T01:49:51;13.60;99.90
52859;DHT22;38721;53.098;6.596;2023-07-20T01:52:17;13.50;99.90
52859;DHT22;38721;53.098;6.596;2023-07-20T01:54:43;13.50;99.90
52859;DHT22;38721;53.098;6.596;2023-07-20T01:57:08;13.40;99.90
52859;DHT22;38721;53.098;6.596;2023-07-20T01:59:34;13.30;99.90
52859;DHT22;38721;53.098;6.596;2023-07-20T02:02:00;13.40;99.90
52859;DHT22;38721;53.098;6.596;2023-07-20T02:04:28;13.30;99.90
52859;DHT22;38721;53.098;6.596;2023-07-20T02:06:54;13.30;99.90
52859;DHT22;38721;53.098;6.596;2023-07-20T02:09:19;13.30;99.90
52859;DHT22;38721;53.098;6.596;2023-07-20T02:11:45;13.20;99.90
52859;DHT22;38721;53.098;6.596;2023-07-20T02:14:11;13.20;99.90
52859;DHT22;38721;53.098;6.596;2023-07-20T02:16:37;13.20;99.90
52859;DHT22;38721;53.098;6.596;2023-07-20T02:19:02;13.20;99.90
52859;DHT22;38721;53.098;6.596;2023-07-20T02:21:29;13.10;99.90
52859;DHT22;38721;53.098;6.596;2023-07-20T02:23:55;13.10;99.90
52859;DHT22;38721;53.098;6.596;2023-07-20T02:26:20;13.10;99.90
52859;DHT22;38721;53.098;6.596;2023-07-20T02:28:46;13.10;99.90
52859;DHT22;38721;53.098;6.596;2023-07-20T02:31:12;13.00;99.90
52859;DHT22;38721;53.098;6.596;2023-07-20T02:33:38;13.00;99.90
52859;DHT22;38721;53.098;6.596;2023-07-20T02:36:03;12.90;99.90
52859;DHT22;38721;53.098;6.596;2023-07-20T02:38:29;12.90;99.90
52859;DHT22;38721;53.098;6.596;2023-07-20T02:40:55;12.90;99.90
52859;DHT22;38721;53.098;6.596;2023-07-20T02:43:20;12.80;99.90
52859;DHT22;38721;53.098;6.596;2023-07-20T02:45:46;12.80;99.90
52859;DHT22;38721;53.098;6.596;2023-07-20T02:48:11;12.80;99.90
52859;DHT22;38721;53.098;6.596;2023-07-20T02:50:37;12.70;99.90
52859;DHT22;38721;53.098;6.596;2023-07-20T02:53:02;12.70;99.90
52859;DHT22;38721;53.098;6.596;2023-07-20T02:55:28;12.70;99.90
52859;DHT22;38721;53.098;6.596;2023-07-20T02:57:56;12.70;99.90
52859;DHT22;38721;53.098;6.596;2023-07-20T03:00:22;12.60;99.90
52859;DHT22;38721;53.098;6.596;2023-07-20T03:02:48;12.60;99.90
52859;DHT22;38721;53.098;6.596;2023-07-20T03:05:14;12.50;99.90
52859;DHT22;38721;53.098;6.596;2023-07-20T03:07:42;12.50;99.90
52859;DHT22;38721;53.098;6.596;2023-07-20T03:10:09;12.50;99.90
52859;DHT22;38721;53.098;6.596;2023-07-20T03:12:35;12.40;99.90
52859;DHT22;38721;53.098;6.596;2023-07-20T03:15:02;12.40;99.90
52859;DHT22;38721;53.098;6.596;2023-07-20T03:17:28;12.40;99.90
52859;DHT22;38721;53.098;6.596;2023-07-20T03:19:54;12.40;99.90
52859;DHT22;38721;53.098;6.596;2023-07-20T03:22:19;12.30;99.90
52859;DHT22;38721;53.098;6.596;2023-07-20T03:24:46;12.30;99.90
52859;DHT22;38721;53.098;6.596;2023-07-20T03:27:12;12.20;99.90
52859;DHT22;38721;53.098;6.596;2023-07-20T03:29:38;12.20;99.90
52859;DHT22;38721;53.098;6.596;2023-07-20T03:32:04;12.20;99.90
52859;DHT22;38721;53.098;6.596;2023-07-20T03:34:30;12.20;99.90
52859;DHT22;38721;53.098;6.596;2023-07-20T03:36:55;12.10;99.90
52859;DHT22;38721;53.098;6.596;2023-07-20T03:39:22;12.10;99.90
52859;DHT22;38721;53.098;6.596;2023-07-20T03:41:48;12.10;99.90
52859;DHT22;38721;53.098;6.596;2023-07-20T03:44:14;12.10;99.90
52859;DHT22;38721;53.098;6.596;2023-07-20T03:46:39;12.10;99.90
52859;DHT22;38721;53.098;6.596;2023-07-20T03:49:08;12.10;99.90
52859;DHT22;38721;53.098;6.596;2023-07-20T03:51:34;12.00;99.90
52859;DHT22;38721;53.098;6.596;2023-07-20T03:54:00;12.00;99.90
52859;DHT22;38721;53.098;6.596;2023-07-20T03:56:26;12.00;99.90
52859;DHT22;38721;53.098;6.596;2023-07-20T03:58:52;12.00;99.90
52859;DHT22;38721;53.098;6.596;2023-07-20T04:01:17;12.00;99.90
52859;DHT22;38721;53.098;6.596;2023-07-20T04:03:43;12.00;99.90
52859;DHT22;38721;53.098;6.596;2023-07-20T04:06:09;11.90;99.90
52859;DHT22;38721;53.098;6.596;2023-07-20T04:08:36;11.90;99.90
52859;DHT22;38721;53.098;6.596;2023-07-20T04:11:02;12.10;99.90
52859;DHT22;38721;53.098;6.596;2023-07-20T04:13:28;12.00;99.90
52859;DHT22;38721;53.098;6.596;2023-07-20T04:15:54;12.10;99.90
52859;DHT22;38721;53.098;6.596;2023-07-20T04:18:20;12.00;99.90
52859;DHT22;38721;53.098;6.596;2023-07-20T04:20:46;12.00;99.90
52859;DHT22;38721;53.098;6.596;2023-07-20T04:23:14;12.00;99.90
52859;DHT22;38721;53.098;6.596;2023-07-20T04:25:40;12.00;99.90
52859;DHT22;38721;53.098;6.596;2023-07-20T04:28:07;12.00;99.90
52859;DHT22;38721;53.098;6.596;2023-07-20T04:30:36;12.00;99.90
52859;DHT22;38721;53.098;6.596;2023-07-20T04:33:03;12.10;99.90
52859;DHT22;38721;53.098;6.596;2023-07-20T04:35:48;12.20;99.90
52859;DHT22;38721;53.098;6.596;2023-07-20T04:38:14;12.20;99.90
52859;DHT22;38721;53.098;6.596;2023-07-20T04:40:44;12.30;99.90
52859;DHT22;38721;53.098;6.596;2023-07-20T04:43:10;12.40;99.90
52859;DHT22;38721;53.098;6.596;2023-07-20T04:45:36;12.30;99.90
52859;DHT22;38721;53.098;6.596;2023-07-20T04:48:02;12.40;99.90
52859;DHT22;38721;53.098;6.596;2023-07-20T04:50:27;12.40;99.90
52859;DHT22;38721;53.098;6.596;2023-07-20T04:52:53;12.40;99.90
52859;DHT22;38721;53.098;6.596;2023-07-20T04:55:23;12.40;99.90
52859;DHT22;38721;53.098;6.596;2023-07-20T04:57:48;12.50;99.90
52859;DHT22;38721;53.098;6.596;2023-07-20T05:00:14;12.50;99.90
52859;DHT22;38721;53.098;6.596;2023-07-20T05:02:43;12.70;99.90
52859;DHT22;38721;53.098;6.596;2023-07-20T05:05:12;12.80;99.90
52859;DHT22;38721;53.098;6.596;2023-07-20T05:07:37;13.00;99.90
52859;DHT22;38721;53.098;6.596;2023-07-20T05:10:03;13.20;99.90
52859;DHT22;38721;53.098;6.596;2023-07-20T05:12:29;13.20;99.90
52859;DHT22;38721;53.098;6.596;2023-07-20T05:14:55;13.40;99.90
52859;DHT22;38721;53.098;6.596;2023-07-20T05:17:20;13.50;99.90
52859;DHT22;38721;53.098;6.596;2023-07-20T05:19:46;13.50;99.90
52859;DHT22;38721;53.098;6.596;2023-07-20T05:22:13;13.60;99.90
52859;DHT22;38721;53.098;6.596;2023-07-20T05:24:39;13.60;99.90
52859;DHT22;38721;53.098;6.596;2023-07-20T05:27:05;13.50;99.90
52859;DHT22;38721;53.098;6.596;2023-07-20T05:29:31;13.60;99.90
52859;DHT22;38721;53.098;6.596;2023-07-20T05:31:57;13.60;99.90
52859;DHT22;38721;53.098;6.596;2023-07-20T05:34:23;13.50;99.90
52859;DHT22;38721;53.098;6.596;2023-07-20T05:36:49;13.60;99.90
52859;DHT22;38721;53.098;6.596;2023-07-20T05:39:16;13.70;99.90
52859;DHT22;38721;53.098;6.596;2023-07-20T05:41:42;13.80;99.90
52859;DHT22;38721;53.098;6.596;2023-07-20T05:44:08;14.10;99.90
52859;DHT22;38721;53.098;6.596;2023-07-20T05:46:33;14.20;99.90
52859;DHT22;38721;53.098;6.596;2023-07-20T05:48:59;14.20;99.90
52859;DHT22;38721;53.098;6.596;2023-07-20T05:51:25;14.40;99.90
52859;DHT22;38721;53.098;6.596;2023-07-20T05:53:51;14.50;99.90
52859;DHT22;38721;53.098;6.596;2023-07-20T05:56:16;14.50;99.90
52859;DHT22;38721;53.098;6.596;2023-07-20T05:58:42;14.50;99.90
52859;DHT22;38721;53.098;6.596;2023-07-20T06:01:08;14.60;99.90
52859;DHT22;38721;53.098;6.596;2023-07-20T06:03:34;14.70;99.90
52859;DHT22;38721;53.098;6.596;2023-07-20T06:06:00;14.80;99.90
52859;DHT22;38721;53.098;6.596;2023-07-20T06:08:28;14.80;99.90
52859;DHT22;38721;53.098;6.596;2023-07-20T06:10:54;15.00;99.90
52859;DHT22;38721;53.098;6.596;2023-07-20T06:13:21;15.00;99.90
52859;DHT22;38721;53.098;6.596;2023-07-20T06:15:47;15.10;99.90
52859;DHT22;38721;53.098;6.596;2023-07-20T06:18:13;15.20;99.90
52859;DHT22;38721;53.098;6.596;2023-07-20T06:20:39;15.20;99.90
52859;DHT22;38721;53.098;6.596;2023-07-20T06:23:04;15.30;99.90
52859;DHT22;38721;53.098;6.596;2023-07-20T06:25:30;15.30;99.90
52859;DHT22;38721;53.098;6.596;2023-07-20T06:27:56;15.40;99.90
52859;DHT22;38721;53.098;6.596;2023-07-20T06:30:22;15.50;99.90
52859;DHT22;38721;53.098;6.596;2023-07-20T06:32:51;15.60;99.90
52859;DHT22;38721;53.098;6.596;2023-07-20T06:35:17;15.70;99.90
52859;DHT22;38721;53.098;6.596;2023-07-20T06:37:43;15.80;99.90
52859;DHT22;38721;53.098;6.596;2023-07-20T06:40:09;15.80;99.90
52859;DHT22;38721;53.098;6.596;2023-07-20T06:42:35;15.90;99.90
52859;DHT22;38721;53.098;6.596;2023-07-20T06:45:01;16.00;99.90
52859;DHT22;38721;53.098;6.596;2023-07-20T06:47:26;16.10;99.90
52859;DHT22;38721;53.098;6.596;2023-07-20T06:49:52;16.20;99.90
52859;DHT22;38721;53.098;6.596;2023-07-20T06:52:18;16.40;99.90
52859;DHT22;38721;53.098;6.596;2023-07-20T06:54:44;16.50;99.90
52859;DHT22;38721;53.098;6.596;2023-07-20T06:57:10;16.40;99.90
52859;DHT22;38721;53.098;6.596;2023-07-20T06:59:35;16.50;99.90
52859;DHT22;38721;53.098;6.596;2023-07-20T07:02:01;16.60;99.90
52859;DHT22;38721;53.098;6.596;2023-07-20T07:04:27;16.60;99.90
52859;DHT22;38721;53.098;6.596;2023-07-20T07:06:53;16.60;99.90
52859;DHT22;38721;53.098;6.596;2023-07-20T07:09:18;16.50;99.90
52859;DHT22;38721;53.098;6.596;2023-07-20T07:11:47;16.80;99.90
52859;DHT22;38721;53.098;6.596;2023-07-20T07:14:13;16.90;99.90
52859;DHT22;38721;53.098;6.596;2023-07-20T07:16:38;16.90;99.90
52859;DHT22;38721;53.098;6.596;2023-07-20T07:19:05;17.00;99.90
52859;DHT22;38721;53.098;6.596;2023-07-20T07:21:31;17.00;99.90
52859;DHT22;38721;53.098;6.596;2023-07-20T07:23:57;17.00;99.90
52859;DHT22;38721;53.098;6.596;2023-07-20T07:26:23;17.30;99.90
52859;DHT22;38721;53.098;6.596;2023-07-20T07:28:49;17.20;99.90
52859;DHT22;38721;53.098;6.596;2023-07-20T07:31:15;17.40;99.90
52859;DHT22;38721;53.098;6.596;2023-07-20T07:33:41;17.40;99.90
52859;DHT22;38721;53.098;6.596;2023-07-20T07:36:07;17.50;99.90
52859;DHT22;38721;53.098;6.596;2023-07-20T07:38:32;17.50;99.90
52859;DHT22;38721;53.098;6.596;2023-07-20T07:40:58;17.50;99.90
52859;DHT22;38721;53.098;6.596;2023-07-20T07:43:24;17.40;99.90
52859;DHT22;38721;53.098;6.596;2023-07-20T07:45:53;17.60;99.90
52859;DHT22;38721;53.098;6.596;2023-07-20T07:48:18;17.80;99.90
52859;DHT22;38721;53.098;6.596;2023-07-20T07:50:46;17.80;99.90
52859;DHT22;38721;53.098;6.596;2023-07-20T07:53:11;17.90;99.90
52859;DHT22;38721;53.098;6.596;2023-07-20T07:55:37;17.80;99.90
52859;DHT22;38721;53.098;6.596;2023-07-20T07:58:03;18.20;99.90
52859;DHT22;38721;53.098;6.596;2023-07-20T08:00:28;18.20;99.90
52859;DHT22;38721;53.098;6.596;2023-07-20T08:02:54;18.20;99.90
52859;DHT22;38721;53.098;6.596;2023-07-20T08:05:19;18.20;99.90
52859;DHT22;38721;53.098;6.596;2023-07-20T08:07:46;18.20;99.90
52859;DHT22;38721;53.098;6.596;2023-07-20T08:10:11;18.40;99.90
52859;DHT22;38721;53.098;6.596;2023-07-20T08:12:37;18.80;99.90
52859;DHT22;38721;53.098;6.596;2023-07-20T08:15:03;18.80;99.90
52859;DHT22;38721;53.098;6.596;2023-07-20T08:17:29;18.60;99.90
52859;DHT22;38721;53.098;6.596;2023-07-20T08:19:55;18.80;99.90
52859;DHT22;38721;53.098;6.596;2023-07-20T08:22:20;18.70;99.90
52859;DHT22;38721;53.098;6.596;2023-07-20T08:24:46;18.90;99.90
52859;DHT22;38721;53.098;6.596;2023-07-20T08:27:12;19.00;99.90
52859;DHT22;38721;53.098;6.596;2023-07-20T08:29:38;18.60;99.90
52859;DHT22;38721;53.098;6.596;2023-07-20T08:32:05;18.30;99.90
52859;DHT22;38721;53.098;6.596;2023-07-20T08:34:31;18.90;99.90
52859;DHT22;38721;53.098;6.596;2023-07-20T08:36:58;19.00;99.90
52859;DHT22;38721;53.098;6.596;2023-07-20T08:39:24;18.90;99.90
52859;DHT22;38721;53.098;6.596;2023-07-20T08:41:51;18.70;99.90
52859;DHT22;38721;53.098;6.596;2023-07-20T08:44:19;18.40;99.90
52859;DHT22;38721;53.098;6.596;2023-07-20T08:46:45;18.30;99.90
52859;DHT22;38721;53.098;6.596;2023-07-20T08:49:17;18.30;99.90
52859;DHT22;38721;53.098;6.596;2023-07-20T08:51:45;18.20;99.90
52859;DHT22;38721;53.098;6.596;2023-07-20T08:54:12;18.20;99.90
52859;DHT22;38721;53.098;6.596;2023-07-20T08:56:40;18.60;99.90
52859;DHT22;38721;53.098;6.596;2023-07-20T08:59:08;18.50;99.90
52859;DHT22;38721;53.098;6.596;2023-07-20T09:01:35;18.50;99.90
52859;DHT22;38721;53.098;6.596;2023-07-20T09:04:05;18.40;99.90
52859;DHT22;38721;53.098;6.596;2023-07-20T09:06:31;18.70;99.90
52859;DHT22;38721;53.098;6.596;2023-07-20T09:08:57;19.00;99.90
52859;DHT22;38721;53.098;6.596;2023-07-20T09:11:23;19.30;99.90
52859;DHT22;38721;53.098;6.596;2023-07-20T09:14:08;19.60;99.90
52859;DHT22;38721;53.098;6.596;2023-07-20T09:16:54;19.90;99.90
52859;DHT22;38721;53.098;6.596;2023-07-20T09:19:20;19.30;99.90
52859;DHT22;38721;53.098;6.596;2023-07-20T09:21:50;18.50;99.90
52859;DHT22;38721;53.098;6.596;2023-07-20T09:24:18;18.50;99.90
52859;DHT22;38721;53.098;6.596;2023-07-20T09:26:45;18.70;99.90
52859;DHT22;38721;53.098;6.596;2023-07-20T09:29:11;19.30;99.90
52859;DHT22;38721;53.098;6.596;2023-07-20T09:31:37;19.60;99.90
52859;DHT22;38721;53.098;6.596;2023-07-20T09:34:05;19.50;1.00
52859;DHT22;38721;53.098;6.596;2023-07-20T09:36:36;20.20;1.00
52859;DHT22;38721;53.098;6.596;2023-07-20T09:39:03;19.90;99.90
52859;DHT22;38721;53.098;6.596;2023-07-20T09:41:30;20.00;99.90
52859;DHT22;38721;53.098;6.596;2023-07-20T09:44:04;20.20;99.90
52859;DHT22;38721;53.098;6.596;2023-07-20T09:46:44;20.60;99.90
52859;DHT22;38721;53.098;6.596;2023-07-20T09:49:10;19.90;99.90
52859;DHT22;38721;53.098;6.596;2023-07-20T09:51:36;19.80;99.90
52859;DHT22;38721;53.098;6.596;2023-07-20T09:54:03;19.50;99.90
52859;DHT22;38721;53.098;6.596;2023-07-20T09:56:30;19.20;99.90
52859;DHT22;38721;53.098;6.596;2023-07-20T09:58:56;19.10;1.00
52859;DHT22;38721;53.098;6.596;2023-07-20T10:01:22;19.60;1.00
52859;DHT22;38721;53.098;6.596;2023-07-20T10:03:51;20.20;50.40
52859;DHT22;38721;53.098;6.596;2023-07-20T10:06:23;20.10;1.00
52859;DHT22;38721;53.098;6.596;2023-07-20T10:08:52;19.90;99.90
52859;DHT22;38721;53.098;6.596;2023-07-20T10:11:22;19.30;99.90
52859;DHT22;38721;53.098;6.596;2023-07-20T10:13:54;19.10;99.90
52859;DHT22;38721;53.098;6.596;2023-07-20T10:16:29;19.40;1.00
52859;DHT22;38721;53.098;6.596;2023-07-20T10:19:05;19.60;99.90
52859;DHT22;38721;53.098;6.596;2023-07-20T10:21:35;20.30;1.00
52859;DHT22;38721;53.098;6.596;2023-07-20T10:24:07;20.80;99.90
52859;DHT22;38721;53.098;6.596;2023-07-20T10:26:39;20.80;1.00
52859;DHT22;38721;53.098;6.596;2023-07-20T10:29:09;20.30;1.00
52859;DHT22;38721;53.098;6.596;2023-07-20T10:31:37;20.00;99.90
52859;DHT22;38721;53.098;6.596;2023-07-20T10:34:03;19.60;99.90
52859;DHT22;38721;53.098;6.596;2023-07-20T10:36:30;20.50;98.50
52859;DHT22;38721;53.098;6.596;2023-07-20T10:38:57;21.10;99.90
52859;DHT22;38721;53.098;6.596;2023-07-20T10:41:31;21.00;90.50
52859;DHT22;38721;53.098;6.596;2023-07-20T10:44:07;21.40;99.90
52859;DHT22;38721;53.098;6.596;2023-07-20T10:49:09;20.80;99.90
52859;DHT22;38721;53.098;6.596;2023-07-20T10:51:59;20.30;99.90
52859;DHT22;38721;53.098;6.596;2023-07-20T10:56:50;20.20;99.90
52859;DHT22;38721;53.098;6.596;2023-07-20T11:01:49;20.20;1.00
52859;DHT22;38721;53.098;6.596;2023-07-20T11:04:16;20.10;99.90
52859;DHT22;38721;53.098;6.596;2023-07-20T11:06:46;20.30;99.90
52859;DHT22;38721;53.098;6.596;2023-07-20T11:09:15;20.60;1.00
52859;DHT22;38721;53.098;6.596;2023-07-20T11:11:43;20.50;93.10
52859;DHT22;38721;53.098;6.596;2023-07-20T11:14:29;20.80;99.90
52859;DHT22;38721;53.098;6.596;2023-07-20T11:17:14;20.80;99.90
52859;DHT22;38721;53.098;6.596;2023-07-20T11:19:40;20.40;99.90
52859;DHT22;38721;53.098;6.596;2023-07-20T11:22:07;20.40;99.90
52859;DHT22;38721;53.098;6.596;2023-07-20T11:24:39;20.40;99.90
52859;DHT22;38721;53.098;6.596;2023-07-20T11:27:05;20.30;99.90
52859;DHT22;38721;53.098;6.596;2023-07-20T11:29:31;20.40;99.90
52859;DHT22;38721;53.098;6.596;2023-07-20T11:31:57;20.30;99.90
52859;DHT22;38721;53.098;6.596;2023-07-20T11:34:26;20.60;8.40
52859;DHT22;38721;53.098;6.596;2023-07-20T11:36:53;20.90;64.00
52859;DHT22;38721;53.098;6.596;2023-07-20T11:39:21;21.10;99.90
52859;DHT22;38721;53.098;6.596;2023-07-20T11:41:48;21.00;99.90
52859;DHT22;38721;53.098;6.596;2023-07-20T11:44:19;21.50;1.00
52859;DHT22;38721;53.098;6.596;2023-07-20T11:47:03;22.00;1.00
52859;DHT22;38721;53.098;6.596;2023-07-20T11:49:29;21.20;1.00
52859;DHT22;38721;53.098;6.596;2023-07-20T11:51:56;21.20;1.00
52859;DHT22;38721;53.098;6.596;2023-07-20T11:54:23;20.80;99.90
52859;DHT22;38721;53.098;6.596;2023-07-20T11:56:53;20.70;99.90
52859;DHT22;38721;53.098;6.596;2023-07-20T11:59:20;20.70;1.00
52859;DHT22;38721;53.098;6.596;2023-07-20T12:01:45;20.50;99.90
52859;DHT22;38721;53.098;6.596;2023-07-20T12:04:11;20.80;99.90
52859;DHT22;38721;53.098;6.596;2023-07-20T12:06:39;21.00;1.00
52859;DHT22;38721;53.098;6.596;2023-07-20T12:09:05;21.50;99.90
52859;DHT22;38721;53.098;6.596;2023-07-20T12:13:58;20.40;99.90
52859;DHT22;38721;53.098;6.596;2023-07-20T12:16:27;20.00;99.90
52859;DHT22;38721;53.098;6.596;2023-07-20T12:19:19;20.00;1.00
52859;DHT22;38721;53.098;6.596;2023-07-20T12:21:44;19.80;1.00
52859;DHT22;38721;53.098;6.596;2023-07-20T12:24:11;19.60;1.50
52859;DHT22;38721;53.098;6.596;2023-07-20T12:26:56;19.60;99.90
52859;DHT22;38721;53.098;6.596;2023-07-20T12:29:43;19.70;47.00
52859;DHT22;38721;53.098;6.596;2023-07-20T12:32:08;20.00;99.90
52859;DHT22;38721;53.098;6.596;2023-07-20T12:34:34;20.60;1.00
52859;DHT22;38721;53.098;6.596;2023-07-20T12:37:03;21.70;99.90
52859;DHT22;38721;53.098;6.596;2023-07-20T12:39:31;22.00;99.90
52859;DHT22;38721;53.098;6.596;2023-07-20T12:42:13;21.50;99.90
52859;DHT22;38721;53.098;6.596;2023-07-20T12:44:40;21.30;99.90
52859;DHT22;38721;53.098;6.596;2023-07-20T12:47:06;21.10;99.90
52859;DHT22;38721;53.098;6.596;2023-07-20T12:49:32;21.90;99.90
52859;DHT22;38721;53.098;6.596;2023-07-20T12:51:58;22.10;99.90
52859;DHT22;38721;53.098;6.596;2023-07-20T12:54:24;22.10;99.90
52859;DHT22;38721;53.098;6.596;2023-07-20T12:56:49;21.80;99.90
52859;DHT22;38721;53.098;6.596;2023-07-20T12:59:15;21.60;99.90
52859;DHT22;38721;53.098;6.596;2023-07-20T13:01:40;21.30;99.90
52859;DHT22;38721;53.098;6.596;2023-07-20T13:04:07;21.40;99.90
52859;DHT22;38721;53.098;6.596;2023-07-20T13:06:36;21.40;99.90
52859;DHT22;38721;53.098;6.596;2023-07-20T13:09:02;20.90;1.00
52859;DHT22;38721;53.098;6.596;2023-07-20T13:11:31;20.50;99.90
52859;DHT22;38721;53.098;6.596;2023-07-20T13:13:56;20.60;22.90
52859;DHT22;38721;53.098;6.596;2023-07-20T13:16:22;21.00;1.00
52859;DHT22;38721;53.098;6.596;2023-07-20T13:18:48;21.10;1.00
52859;DHT22;38721;53.098;6.596;2023-07-20T13:21:14;21.40;99.90
52859;DHT22;38721;53.098;6.596;2023-07-20T13:23:40;21.00;1.00
52859;DHT22;38721;53.098;6.596;2023-07-20T13:26:05;21.20;99.90
52859;DHT22;38721;53.098;6.596;2023-07-20T13:28:31;20.40;99.90
52859;DHT22;38721;53.098;6.596;2023-07-20T13:30:57;20.50;99.90
52859;DHT22;38721;53.098;6.596;2023-07-20T13:33:23;21.90;99.90
52859;DHT22;38721;53.098;6.596;2023-07-20T13:35:48;21.80;99.90
52859;DHT22;38721;53.098;6.596;2023-07-20T13:38:14;21.10;99.90
52859;DHT22;38721;53.098;6.596;2023-07-20T13:40:40;20.60;99.90
52859;DHT22;38721;53.098;6.596;2023-07-20T13:43:05;20.70;99.90
52859;DHT22;38721;53.098;6.596;2023-07-20T13:45:31;20.60;99.90
52859;DHT22;38721;53.098;6.596;2023-07-20T13:47:57;20.20;99.90
52859;DHT22;38721;53.098;6.596;2023-07-20T13:50:22;20.40;1.00
52859;DHT22;38721;53.098;6.596;2023-07-20T13:52:48;20.50;99.90
52859;DHT22;38721;53.098;6.596;2023-07-20T13:55:14;20.30;99.90
52859;DHT22;38721;53.098;6.596;2023-07-20T13:57:40;20.40;99.90
52859;DHT22;38721;53.098;6.596;2023-07-20T14:00:06;20.60;99.90
52859;DHT22;38721;53.098;6.596;2023-07-20T14:02:33;20.40;99.90
52859;DHT22;38721;53.098;6.596;2023-07-20T14:04:59;21.40;99.90
52859;DHT22;38721;53.098;6.596;2023-07-20T14:07:25;22.40;1.70
52859;DHT22;38721;53.098;6.596;2023-07-20T14:09:51;22.60;5.60
52859;DHT22;38721;53.098;6.596;2023-07-20T14:12:16;22.30;1.00
52859;DHT22;38721;53.098;6.596;2023-07-20T14:14:45;22.20;1.00
52859;DHT22;38721;53.098;6.596;2023-07-20T14:17:11;21.00;98.30
52859;DHT22;38721;53.098;6.596;2023-07-20T14:19:37;20.60;99.90
52859;DHT22;38721;53.098;6.596;2023-07-20T14:22:03;20.40;99.90
52859;DHT22;38721;53.098;6.596;2023-07-20T14:24:29;20.60;94.90
52859;DHT22;38721;53.098;6.596;2023-07-20T14:26:55;20.30;99.90
52859;DHT22;38721;53.098;6.596;2023-07-20T14:29:21;20.00;99.90
52859;DHT22;38721;53.098;6.596;2023-07-20T14:31:47;20.00;99.90
52859;DHT22;38721;53.098;6.596;2023-07-20T14:34:19;19.90;1.00
52859;DHT22;38721;53.098;6.596;2023-07-20T14:36:45;19.80;99.90
52859;DHT22;38721;53.098;6.596;2023-07-20T14:39:11;19.80;99.90
52859;DHT22;38721;53.098;6.596;2023-07-20T14:41:37;19.70;99.90
52859;DHT22;38721;53.098;6.596;2023-07-20T14:44:03;19.80;99.90
52859;DHT22;38721;53.098;6.596;2023-07-20T14:46:28;20.00;99.90
52859;DHT22;38721;53.098;6.596;2023-07-20T14:48:54;20.40;99.90
52859;DHT22;38721;53.098;6.596;2023-07-20T14:51:20;20.20;99.90
52859;DHT22;38721;53.098;6.596;2023-07-20T14:53:46;20.40;90.90
52859;DHT22;38721;53.098;6.596;2023-07-20T14:56:12;21.60;99.90
52859;DHT22;38721;53.098;6.596;2023-07-20T14:58:37;22.00;99.90
52859;DHT22;38721;53.098;6.596;2023-07-20T15:01:03;22.70;80.70
52859;DHT22;38721;53.098;6.596;2023-07-20T15:03:29;21.80;74.90
52859;DHT22;38721;53.098;6.596;2023-07-20T15:05:56;22.80;99.90
52859;DHT22;38721;53.098;6.596;2023-07-20T15:08:22;22.10;1.00
52859;DHT22;38721;53.098;6.596;2023-07-20T15:10:48;21.60;1.00
52859;DHT22;38721;53.098;6.596;2023-07-20T15:13:14;20.80;99.90
52859;DHT22;38721;53.098;6.596;2023-07-20T15:15:40;20.70;99.80
52859;DHT22;38721;53.098;6.596;2023-07-20T15:18:05;20.40;99.90
52859;DHT22;38721;53.098;6.596;2023-07-20T15:20:31;20.80;99.90
52859;DHT22;38721;53.098;6.596;2023-07-20T15:22:58;20.70;99.90
52859;DHT22;38721;53.098;6.596;2023-07-20T15:25:24;20.60;99.90
52859;DHT22;38721;53.098;6.596;2023-07-20T15:27:50;20.30;99.90
52859;DHT22;38721;53.098;6.596;2023-07-20T15:30:17;20.30;99.90
52859;DHT22;38721;53.098;6.596;2023-07-20T15:32:43;20.20;1.00
52859;DHT22;38721;53.098;6.596;2023-07-20T15:35:09;20.10;99.90
52859;DHT22;38721;53.098;6.596;2023-07-20T15:37:35;20.60;99.90
52859;DHT22;38721;53.098;6.596;2023-07-20T15:40:02;20.60;99.90
52859;DHT22;38721;53.098;6.596;2023-07-20T15:42:32;20.70;99.90
52859;DHT22;38721;53.098;6.596;2023-07-20T15:44:57;21.10;1.00
52859;DHT22;38721;53.098;6.596;2023-07-20T15:47:23;21.40;23.60